Time;durP1;ratioP1;P1;durP2;ratioP2;P2;SDS_P1;SDS_P2;PMS_P1;PMS_P2;Temp;Humidity;BMP_temperature;BMP_pressure;BME280_temperature;BME280_humidity;BME280_pressure;Samples;Min_cycle;Max_cycle;Signal;HPM_P1;HPM_P2
2023/08/26 00:02:07;;;;;;;5.30;3.50;;;21.70;99.90;;;;;;5095835;28;20028;-75
2023/08/26 00:04:33;;;;;;;4.07;3.60;;;21.60;99.90;;;;;;5095450;28;20107;-75
2023/08/26 00:07:00;;;;;;;5.13;3.17;;;21.60;99.90;;;;;;5094085;28;20055;-75
2023/08/26 00:09:26;;;;;;;7.32;3.75;;;21.50;99.90;;;;;;5095152;28;20465;-75
2023/08/26 00:11:51;;;;;;;6.32;3.50;;;21.50;99.90;;;;;;5077404;28;20073;-75
2023/08/26 00:14:17;;;;;;;5.90;3.65;;;21.40;99.90;;;;;;5077118;28;20039;-75
2023/08/26 00:16:42;;;;;;;7.68;3.97;;;21.30;99.90;;;;;;5095211;28;20020;-75
2023/08/26 00:19:08;;;;;;;6.20;3.78;;;21.30;99.90;;;;;;5076604;28;20397;-75
2023/08/26 00:21:34;;;;;;;6.47;3.80;;;21.20;99.90;;;;;;5094839;28;20021;-75
2023/08/26 00:23:59;;;;;;;6.07;3.90;;;21.20;99.90;;;;;;5095360;28;20035;-75
2023/08/26 00:26:25;;;;;;;8.43;4.00;;;21.20;99.90;;;;;;5077515;28;20118;-75
2023/08/26 00:28:50;;;;;;;6.53;4.13;;;21.10;99.90;;;;;;5076937;28;20032;-75
2023/08/26 00:31:16;;;;;;;6.53;3.78;;;21.00;99.90;;;;;;5094879;28;20031;-74
2023/08/26 00:33:41;;;;;;;9.07;4.00;;;21.00;99.90;;;;;;5094572;28;20028;-74
2023/08/26 00:36:07;;;;;;;7.47;3.30;;;21.00;99.90;;;;;;5094563;28;20036;-74
2023/08/26 00:38:33;;;;;;;5.75;3.78;;;21.00;99.90;;;;;;5094922;28;20032;-75
2023/08/26 00:40:58;;;;;;;9.32;3.95;;;20.90;99.90;;;;;;5095101;28;20099;-75
2023/08/26 00:43:27;;;;;;;5.97;3.97;;;20.90;99.90;;;;;;5094556;28;20028;-75
2023/08/26 00:45:53;;;;;;;5.80;3.67;;;20.90;99.90;;;;;;5094657;28;20024;-74
2023/08/26 00:48:19;;;;;;;8.10;4.50;;;20.90;99.90;;;;;;5076478;28;20039;-75
2023/08/26 00:50:48;;;;;;;6.13;3.70;;;20.90;99.90;;;;;;5076052;28;20048;-75
2023/08/26 00:53:16;;;;;;;5.53;4.22;;;20.80;99.90;;;;;;5094743;28;20020;-74
2023/08/26 00:55:43;;;;;;;5.85;3.83;;;20.80;99.90;;;;;;5094845;28;20110;-75
2023/08/26 00:58:09;;;;;;;4.72;3.80;;;20.70;99.90;;;;;;5094750;28;20071;-75
2023/08/26 01:00:36;;;;;;;7.18;4.47;;;20.60;99.90;;;;;;5094165;28;20039;-74
2023/08/26 01:03:03;;;;;;;7.30;3.80;;;20.60;99.90;;;;;;5094565;28;20070;-75
2023/08/26 01:05:29;;;;;;;5.65;4.03;;;20.60;99.90;;;;;;5076849;28;20024;-74
2023/08/26 01:07:55;;;;;;;8.45;4.28;;;20.60;99.90;;;;;;5093103;28;20039;-74
2023/08/26 01:10:31;;;;;;;6.25;3.78;;;20.60;99.90;;;;;;5076145;28;20467;-74
2023/08/26 01:13:05;;;;;;;5.93;3.92;;;20.60;99.90;;;;;;5095237;28;20024;-75
2023/08/26 01:15:34;;;;;;;3.80;3.17;;;20.60;99.90;;;;;;5096172;28;20024;-75
2023/08/26 01:18:05;;;;;;;4.82;3.60;;;20.50;99.90;;;;;;5077649;28;20389;-75
2023/08/26 01:20:31;;;;;;;5.65;3.47;;;20.50;99.90;;;;;;5095382;28;20032;-75
2023/08/26 01:22:59;;;;;;;7.10;3.30;;;20.40;99.90;;;;;;5095985;28;20047;-75
2023/08/26 01:25:26;;;;;;;9.10;3.72;;;20.30;99.90;;;;;;5096823;28;20082;-75
2023/08/26 01:27:53;;;;;;;5.30;3.85;;;20.30;99.90;;;;;;5077040;28;20419;-75
2023/08/26 01:30:21;;;;;;;4.07;3.67;;;20.30;99.90;;;;;;5076317;28;20028;-77
2023/08/26 01:33:24;;;;;;;7.22;3.30;;;20.40;99.90;;;;;;5099022;28;20107;-74
2023/08/26 01:35:53;;;;;;;5.35;3.63;;;20.30;99.90;;;;;;5095782;28;20020;-74
2023/08/26 01:38:20;;;;;;;4.97;3.50;;;20.30;99.90;;;;;;5094355;28;20119;-74
2023/08/26 01:40:53;;;;;;;9.45;4.13;;;20.20;99.90;;;;;;5094381;28;20048;-75
2023/08/26 01:43:21;;;;;;;6.60;3.85;;;20.20;99.90;;;;;;5094231;28;20067;-75
2023/08/26 01:45:47;;;;;;;4.63;4.00;;;20.20;99.90;;;;;;5075954;28;20457;-75
2023/08/26 01:48:13;;;;;;;4.65;3.83;;;20.20;99.90;;;;;;5093974;28;20077;-74
2023/08/26 01:50:38;;;;;;;9.40;4.25;;;20.20;99.90;;;;;;5093945;28;20063;-75
2023/08/26 01:53:04;;;;;;;6.35;3.90;;;20.20;99.90;;;;;;5093930;28;20024;-75
2023/08/26 01:55:30;;;;;;;7.05;4.03;;;20.10;99.90;;;;;;5075731;28;20077;-75
2023/08/26 01:57:56;;;;;;;4.30;3.90;;;20.10;99.90;;;;;;5075530;28;20423;-75
2023/08/26 02:00:21;;;;;;;7.85;4.75;;;20.00;99.90;;;;;;5094263;28;20028;-75
2023/08/26 02:02:47;;;;;;;8.48;4.35;;;20.00;99.90;;;;;;5093547;28;20031;-74
2023/08/26 02:05:13;;;;;;;4.95;3.88;;;20.00;99.90;;;;;;5075707;28;20476;-75
2023/08/26 02:07:38;;;;;;;5.32;3.63;;;20.00;99.90;;;;;;5093583;28;20058;-74
2023/08/26 02:10:04;;;;;;;8.88;4.35;;;20.00;99.90;;;;;;5093572;28;20035;-74
2023/08/26 02:12:30;;;;;;;8.40;4.32;;;19.90;99.90;;;;;;5076379;28;20024;-75
2023/08/26 02:14:55;;;;;;;6.80;4.53;;;19.90;99.90;;;;;;5075338;28;20607;-74
2023/08/26 02:17:21;;;;;;;10.20;4.18;;;19.90;99.90;;;;;;5075502;28;20024;-75
2023/08/26 02:19:47;;;;;;;5.40;4.20;;;19.80;99.90;;;;;;5075502;28;20477;-74
2023/08/26 02:22:12;;;;;;;4.82;4.22;;;19.80;99.90;;;;;;5075847;28;20020;-75
2023/08/26 02:24:38;;;;;;;10.40;4.25;;;19.80;99.90;;;;;;5093932;28;20028;-75
2023/08/26 02:27:04;;;;;;;7.82;3.90;;;19.80;99.90;;;;;;5093423;28;20056;-76
2023/08/26 02:29:30;;;;;;;9.10;4.32;;;19.80;99.90;;;;;;5076147;28;20031;-75
2023/08/26 02:31:56;;;;;;;7.90;4.03;;;19.80;99.90;;;;;;5075958;28;20031;-75
2023/08/26 02:34:22;;;;;;;6.40;3.97;;;19.80;99.90;;;;;;5101835;28;20058;-75
2023/08/26 02:36:47;;;;;;;4.43;4.00;;;19.80;99.90;;;;;;5100901;28;20461;-75
2023/08/26 02:39:13;;;;;;;5.28;4.40;;;19.80;99.90;;;;;;5101772;28;20116;-75
2023/08/26 02:41:39;;;;;;;6.00;4.10;;;19.80;99.90;;;;;;5097724;28;20385;-74
2023/08/26 02:44:04;;;;;;;6.22;4.25;;;19.90;99.90;;;;;;5078520;28;20461;-75
2023/08/26 02:46:30;;;;;;;8.80;4.07;;;19.90;99.90;;;;;;5096885;28;20024;-74
2023/08/26 02:48:56;;;;;;;9.45;4.50;;;19.80;99.90;;;;;;5078210;28;20028;-75
2023/08/26 02:51:22;;;;;;;7.93;3.80;;;19.80;99.90;;;;;;5095684;28;20020;-74
2023/08/26 02:53:47;;;;;;;5.45;4.80;;;19.80;99.90;;;;;;5097097;28;20081;-74
2023/08/26 02:56:13;;;;;;;6.20;3.78;;;19.80;99.90;;;;;;5096886;28;20032;-74
2023/08/26 02:58:38;;;;;;;7.93;4.03;;;19.70;99.90;;;;;;5095522;28;20089;-75
2023/08/26 03:01:06;;;;;;;5.53;4.32;;;19.70;99.90;;;;;;5078678;28;20430;-75
2023/08/26 03:03:32;;;;;;;9.75;4.13;;;19.70;99.90;;;;;;5097466;28;20020;-77
2023/08/26 03:05:58;;;;;;;6.65;4.60;;;19.70;99.90;;;;;;5098152;28;20024;-76
2023/08/26 03:08:24;;;;;;;11.80;4.45;;;19.70;99.90;;;;;;5099026;28;20028;-75
2023/08/26 03:10:59;;;;;;;5.40;3.90;;;19.80;99.90;;;;;;5098489;28;20027;-74
2023/08/26 03:13:24;;;;;;;5.45;4.20;;;19.80;99.90;;;;;;5079905;28;20024;-75
2023/08/26 03:15:50;;;;;;;5.00;3.80;;;19.90;99.90;;;;;;5080856;28;20085;-76
2023/08/26 03:18:16;;;;;;;6.07;4.13;;;19.80;99.90;;;;;;5100410;28;20032;-75
2023/08/26 03:20:41;;;;;;;10.07;4.30;;;19.90;99.90;;;;;;5101205;28;20480;-76
2023/08/26 03:23:07;;;;;;;5.32;4.22;;;19.90;99.90;;;;;;5101858;28;20035;-76
2023/08/26 03:25:43;;;;;;;7.70;3.70;;;19.90;99.90;;;;;;5083322;28;20117;-75
2023/08/26 03:28:08;;;;;;;8.30;3.97;;;19.90;99.90;;;;;;5101136;28;20032;-75
2023/08/26 03:30:35;;;;;;;10.32;4.00;;;19.90;99.90;;;;;;5099605;28;20484;-75
2023/08/26 03:33:01;;;;;;;8.65;4.10;;;19.90;99.90;;;;;;5098576;28;20042;-75
2023/08/26 03:35:27;;;;;;;7.00;4.20;;;19.90;99.90;;;;;;5098407;28;20077;-75
2023/08/26 03:37:53;;;;;;;8.55;4.72;;;19.90;99.90;;;;;;5080170;28;20032;-74
2023/08/26 03:40:22;;;;;;;5.68;4.30;;;20.00;99.90;;;;;;5097772;28;20038;-75
2023/08/26 03:42:49;;;;;;;9.18;4.57;;;20.00;99.90;;;;;;5097455;28;20465;-74
2023/08/26 03:45:16;;;;;;;5.85;3.75;;;20.10;99.90;;;;;;5079004;28;20029;-75
2023/08/26 03:47:41;;;;;;;4.90;4.10;;;20.10;99.90;;;;;;5096986;28;20031;-75
2023/08/26 03:50:07;;;;;;;7.40;4.00;;;20.10;99.90;;;;;;5095887;28;20036;-75
2023/08/26 03:52:33;;;;;;;6.38;4.35;;;20.10;99.90;;;;;;5096255;28;20052;-75
2023/08/26 03:54:59;;;;;;;3.85;3.35;;;20.10;99.90;;;;;;5079550;28;20531;-74
2023/08/26 03:57:25;;;;;;;4.78;3.70;;;20.00;99.90;;;;;;5098416;28;20035;-76
2023/08/26 03:59:50;;;;;;;5.57;4.00;;;19.90;99.90;;;;;;5081767;28;20531;-76
2023/08/26 04:02:16;;;;;;;6.93;4.00;;;19.90;99.90;;;;;;5096573;28;20451;-75
2023/08/26 04:04:42;;;;;;;6.93;3.92;;;19.90;99.90;;;;;;5095883;28;20107;-75
2023/08/26 04:07:07;;;;;;;5.22;4.00;;;19.90;99.90;;;;;;5096052;28;20115;-75
2023/08/26 04:09:33;;;;;;;4.55;4.15;;;19.90;99.90;;;;;;5096082;28;20035;-75
2023/08/26 04:11:59;;;;;;;9.20;4.22;;;19.90;99.90;;;;;;5077733;28;20024;-75
2023/08/26 04:14:24;;;;;;;5.22;4.07;;;19.90;99.90;;;;;;5095344;28;20050;-74
2023/08/26 04:16:50;;;;;;;5.35;4.40;;;19.90;99.90;;;;;;5095714;28;20029;-75
2023/08/26 04:19:16;;;;;;;5.78;4.10;;;19.90;99.90;;;;;;5095776;28;20059;-75
2023/08/26 04:21:42;;;;;;;7.25;3.80;;;19.90;99.90;;;;;;5077208;28;20024;-76
2023/08/26 04:24:07;;;;;;;7.32;3.88;;;20.00;99.90;;;;;;5077153;28;20038;-67
2023/08/26 04:26:33;;;;;;;5.15;3.50;;;20.00;99.90;;;;;;5093655;28;20040;-63
2023/08/26 04:28:59;;;;;;;6.72;3.90;;;20.10;99.90;;;;;;5095075;28;20065;-64
2023/08/26 04:31:24;;;;;;;6.40;3.67;;;20.10;99.90;;;;;;5094766;28;20082;-64
2023/08/26 04:33:51;;;;;;;10.00;4.35;;;20.20;99.90;;;;;;5076601;28;20073;-64
2023/08/26 04:36:17;;;;;;;7.72;3.35;;;20.20;99.90;;;;;;5076500;28;20528;-64
2023/08/26 04:38:43;;;;;;;10.50;4.20;;;20.20;99.90;;;;;;5094782;28;20123;-64
2023/08/26 04:41:09;;;;;;;4.13;3.70;;;20.20;99.90;;;;;;5094738;28;20024;-64
2023/08/26 04:43:35;;;;;;;5.53;3.80;;;20.20;99.90;;;;;;5095447;28;20074;-64
2023/08/26 04:46:01;;;;;;;5.85;3.83;;;20.30;99.90;;;;;;5094586;28;20021;-64
2023/08/26 04:48:29;;;;;;;7.57;3.70;;;20.30;99.90;;;;;;5094862;28;20034;-64
2023/08/26 04:50:55;;;;;;;5.32;3.90;;;20.30;99.90;;;;;;5094593;28;20055;-64
2023/08/26 04:53:21;;;;;;;8.10;3.70;;;20.40;99.90;;;;;;5094584;28;20397;-64
2023/08/26 04:55:51;;;;;;;4.97;3.72;;;20.40;99.90;;;;;;5093668;28;20024;-65
2023/08/26 04:58:17;;;;;;;5.72;3.80;;;20.50;99.90;;;;;;5075965;28;20032;-65
2023/08/26 05:00:44;;;;;;;6.32;3.75;;;20.60;99.90;;;;;;5094126;28;20426;-64
2023/08/26 05:03:10;;;;;;;7.07;3.65;;;20.60;99.90;;;;;;5094057;28;20058;-64
2023/08/26 05:05:39;;;;;;;8.25;4.53;;;20.70;99.90;;;;;;5076575;28;20055;-64
2023/08/26 05:08:04;;;;;;;8.48;3.58;;;20.90;99.90;;;;;;5093994;28;20466;-64
2023/08/26 05:10:30;;;;;;;8.43;3.70;;;21.00;99.90;;;;;;5076284;28;20035;-64
2023/08/26 05:12:56;;;;;;;4.57;3.53;;;21.20;99.90;;;;;;5094392;28;20020;-64
2023/08/26 05:15:22;;;;;;;3.67;3.30;;;21.30;99.90;;;;;;5093831;28;20031;-64
2023/08/26 05:17:47;;;;;;;4.95;3.33;;;21.40;99.90;;;;;;5076068;28;20028;-65
2023/08/26 05:20:13;;;;;;;5.18;3.25;;;21.60;99.90;;;;;;5094034;28;20023;-64
2023/08/26 05:22:42;;;;;;;7.03;3.50;;;21.70;99.90;;;;;;5075972;28;20473;-64
2023/08/26 05:25:08;;;;;;;9.45;3.60;;;21.80;99.90;;;;;;5094018;28;20028;-64
2023/08/26 05:27:34;;;;;;;6.68;3.45;;;22.00;99.90;;;;;;5094400;28;20042;-64
2023/08/26 05:30:00;;;;;;;4.88;3.08;;;22.20;99.90;;;;;;5075599;28;20111;-64
2023/08/26 05:32:26;;;;;;;6.38;3.38;;;22.30;99.90;;;;;;5075826;28;20539;-64
2023/08/26 05:34:51;;;;;;;10.98;3.70;;;22.40;99.90;;;;;;5075785;28;20028;-64
2023/08/26 05:37:17;;;;;;;6.57;3.55;;;22.50;99.90;;;;;;5093582;28;20031;-64
2023/08/26 05:39:43;;;;;;;6.50;3.63;;;22.60;99.90;;;;;;5075585;28;20036;-64
2023/08/26 05:42:09;;;;;;;5.03;3.58;;;22.60;99.90;;;;;;5093845;28;20024;-64
2023/08/26 05:44:34;;;;;;;5.55;3.47;;;22.70;99.90;;;;;;5093804;28;20035;-64
2023/08/26 05:47:00;;;;;;;4.45;3.20;;;22.70;99.90;;;;;;5093896;28;20025;-64
2023/08/26 05:49:26;;;;;;;3.70;3.13;;;22.80;99.90;;;;;;5093604;28;20078;-64
2023/08/26 05:51:51;;;;;;;5.95;3.03;;;22.90;99.90;;;;;;5075533;28;20025;-64
2023/08/26 05:54:17;;;;;;;5.50;3.13;;;23.00;99.90;;;;;;5093677;28;20031;-62
2023/08/26 05:56:43;;;;;;;9.98;3.47;;;23.10;99.90;;;;;;5094050;28;20035;-63
2023/08/26 05:59:08;;;;;;;6.38;3.20;;;23.10;99.90;;;;;;5093768;28;20094;-62
2023/08/26 06:01:34;;;;;;;6.15;3.47;;;23.40;99.90;;;;;;5093785;28;20048;-62
2023/08/26 06:04:00;;;;;;;4.32;3.15;;;23.50;99.90;;;;;;5093725;28;20031;-62
2023/08/26 06:06:26;;;;;;;6.15;3.22;;;23.80;99.90;;;;;;5093660;28;20051;-62
2023/08/26 06:08:51;;;;;;;3.42;3.13;;;23.80;99.90;;;;;;5096988;28;20068;-62
2023/08/26 06:11:17;;;;;;;3.90;2.95;;;23.90;99.90;;;;;;5097641;28;20075;-62
2023/08/26 06:13:43;;;;;;;6.72;3.47;;;23.90;99.90;;;;;;5097604;28;20108;-62
2023/08/26 06:16:08;;;;;;;4.65;2.85;;;24.00;99.90;;;;;;5097490;28;20035;-61
2023/08/26 06:18:34;;;;;;;9.30;3.28;;;24.10;99.90;;;;;;5079114;28;20127;-61
2023/08/26 06:21:00;;;;;;;7.55;3.33;;;24.30;99.90;;;;;;5078970;28;20028;-62
2023/08/26 06:23:25;;;;;;;6.00;3.67;;;24.50;99.90;;;;;;5097745;28;20021;-60
2023/08/26 06:25:56;;;;;;;7.13;4.15;;;24.90;99.90;;;;;;5079047;28;20024;-61
2023/08/26 06:28:22;;;;;;;4.28;3.25;;;25.20;99.90;;;;;;5096974;28;20473;-59
2023/08/26 06:30:48;;;;;;;5.53;3.47;;;25.30;99.90;;;;;;5097739;28;20032;-59
2023/08/26 06:33:14;;;;;;;8.45;3.53;;;25.40;99.90;;;;;;5078594;28;20024;-62
2023/08/26 06:35:40;;;;;;;4.40;3.38;;;25.60;99.90;;;;;;5097121;28;20031;-59
2023/08/26 06:38:07;;;;;;;5.05;2.97;;;25.90;99.90;;;;;;5096733;28;20063;-61
2023/08/26 06:40:33;;;;;;;4.88;2.83;;;26.20;99.90;;;;;;5097074;28;20020;-61
2023/08/26 06:42:59;;;;;;;10.32;3.75;;;26.40;99.90;;;;;;5097156;28;20024;-61
2023/08/26 06:45:25;;;;;;;4.38;3.28;;;26.60;99.90;;;;;;5078606;28;20132;-61
2023/08/26 06:47:51;;;;;;;8.35;3.15;;;26.60;99.90;;;;;;5096856;28;20027;-61
2023/08/26 06:50:16;;;;;;;4.65;2.90;;;26.90;99.90;;;;;;5078336;28;20048;-69
2023/08/26 06:52:42;;;;;;;3.67;2.97;;;27.40;99.90;;;;;;5078722;28;20031;-67
2023/08/26 06:55:09;;;;;;;4.43;2.90;;;28.00;99.90;;;;;;5079158;28;20032;-67
2023/08/26 06:57:35;;;;;;;5.00;3.38;;;28.60;99.90;;;;;;5096762;28;20097;-66
2023/08/26 07:00:03;;;;;;;6.03;3.30;;;29.10;99.90;;;;;;5096875;28;20327;-66
2023/08/26 07:02:29;;;;;;;4.50;3.13;;;29.40;99.50;;;;;;5095740;28;20028;-67
2023/08/26 07:04:54;;;;;;;6.28;2.80;;;29.60;98.40;;;;;;5078953;28;20085;-64
2023/08/26 07:07:20;;;;;;;5.22;2.60;;;30.10;97.40;;;;;;5095513;28;20111;-64
2023/08/26 07:09:45;;;;;;;5.20;2.67;;;30.40;96.10;;;;;;5096525;28;20031;-64
2023/08/26 07:12:12;;;;;;;6.22;3.00;;;30.50;95.60;;;;;;5078351;28;20526;-64
2023/08/26 07:14:38;;;;;;;3.15;2.90;;;30.40;94.70;;;;;;5078130;28;20422;-64
2023/08/26 07:17:04;;;;;;;3.30;2.75;;;30.20;94.70;;;;;;5096417;28;20067;-64
2023/08/26 07:19:29;;;;;;;5.05;3.38;;;29.60;95.40;;;;;;5095666;28;20044;-65
2023/08/26 07:21:55;;;;;;;7.85;3.35;;;29.10;96.60;;;;;;5096432;28;20465;-66
2023/08/26 07:24:20;;;;;;;6.80;2.83;;;29.00;96.90;;;;;;5078202;28;20028;-64
2023/08/26 07:26:47;;;;;;;8.98;3.25;;;28.90;97.10;;;;;;5096334;28;20081;-64
2023/08/26 07:29:12;;;;;;;4.50;3.08;;;28.80;97.50;;;;;;5096596;28;20028;-64
2023/08/26 07:31:38;;;;;;;6.97;3.17;;;28.60;97.80;;;;;;5078063;28;20039;-66
2023/08/26 07:34:03;;;;;;;6.18;3.33;;;28.10;98.40;;;;;;5096568;28;20032;-66
2023/08/26 07:36:29;;;;;;;5.40;3.20;;;27.80;99.70;;;;;;5078680;28;20032;-66
2023/08/26 07:38:55;;;;;;;6.97;3.28;;;27.70;99.90;;;;;;5078521;28;20582;-66
2023/08/26 07:41:20;;;;;;;9.88;3.90;;;27.40;99.70;;;;;;5100352;28;20024;-67
2023/08/26 07:43:46;;;;;;;4.55;3.08;;;27.30;99.90;;;;;;5102448;28;20024;-64
2023/08/26 07:46:12;;;;;;;6.10;3.22;;;27.10;99.90;;;;;;5084507;28;20023;-65
2023/08/26 07:48:38;;;;;;;6.72;3.67;;;26.90;99.90;;;;;;5082830;28;20036;-64
2023/08/26 07:51:04;;;;;;;5.45;3.10;;;26.70;99.90;;;;;;5102909;28;20047;-64
2023/08/26 07:53:30;;;;;;;6.15;3.22;;;26.40;99.90;;;;;;5083444;28;20058;-64
2023/08/26 07:55:55;;;;;;;4.35;3.40;;;26.30;99.90;;;;;;5080509;28;20074;-65
2023/08/26 07:58:21;;;;;;;7.80;3.90;;;26.20;99.90;;;;;;5078389;28;20032;-65
2023/08/26 08:00:46;;;;;;;4.32;3.45;;;25.90;99.90;;;;;;5096199;28;20062;-65
2023/08/26 08:03:12;;;;;;;5.82;3.78;;;25.70;99.90;;;;;;5095475;28;20027;-65
2023/08/26 08:05:38;;;;;;;8.77;3.78;;;25.70;99.90;;;;;;5095453;28;20031;-66
2023/08/26 08:08:03;;;;;;;4.60;3.40;;;25.60;99.90;;;;;;5095486;28;20456;-65
2023/08/26 08:10:29;;;;;;;4.20;3.53;;;25.50;99.90;;;;;;5077110;28;20032;-65
2023/08/26 08:12:55;;;;;;;8.82;4.38;;;25.50;99.90;;;;;;5095388;28;20027;-65
2023/08/26 08:15:20;;;;;;;7.03;3.70;;;25.50;99.90;;;;;;5076938;28;20024;-65
2023/08/26 08:17:46;;;;;;;5.97;3.67;;;25.40;99.90;;;;;;5094672;28;20028;-65
2023/08/26 08:20:12;;;;;;;8.98;3.60;;;25.40;99.90;;;;;;5076887;28;20450;-65
2023/08/26 08:22:41;;;;;;;12.45;4.00;;;25.40;99.90;;;;;;5094900;28;20414;-65
2023/08/26 08:25:07;;;;;;;8.38;3.65;;;25.60;99.90;;;;;;5094923;28;20028;-63
2023/08/26 08:27:34;;;;;;;6.97;3.33;;;25.70;99.90;;;;;;5076968;28;20377;-63
2023/08/26 08:30:00;;;;;;;4.82;3.30;;;25.70;99.90;;;;;;5094454;28;20035;-63
2023/08/26 08:32:26;;;;;;;5.80;3.83;;;25.70;99.90;;;;;;5094048;28;20444;-63
2023/08/26 08:34:52;;;;;;;9.18;3.70;;;25.80;99.90;;;;;;5094489;28;20024;-63
2023/08/26 08:37:18;;;;;;;8.48;3.90;;;25.90;99.90;;;;;;5094423;28;20107;-63
2023/08/26 08:39:44;;;;;;;5.63;3.88;;;26.20;99.90;;;;;;5094589;28;20111;-63
2023/08/26 08:42:13;;;;;;;4.80;3.67;;;26.30;99.90;;;;;;5094552;28;20050;-63
2023/08/26 08:44:41;;;;;;;5.38;3.80;;;26.20;99.90;;;;;;5076660;28;20028;-64
2023/08/26 08:47:08;;;;;;;6.35;3.80;;;26.20;99.90;;;;;;5076361;28;20020;-63
2023/08/26 08:49:35;;;;;;;9.32;4.45;;;26.10;99.90;;;;;;5094328;28;20416;-63
2023/08/26 08:52:10;;;;;;;6.60;4.15;;;26.00;99.90;;;;;;5094264;28;20153;-63
2023/08/26 08:54:37;;;;;;;8.23;4.05;;;26.10;99.90;;;;;;5094434;28;20085;-64
2023/08/26 08:57:03;;;;;;;8.20;4.10;;;26.50;99.90;;;;;;5094326;28;20035;-63
2023/08/26 08:59:32;;;;;;;8.13;4.25;;;27.00;99.90;;;;;;5076085;28;20199;-63
2023/08/26 09:01:59;;;;;;;4.90;4.40;;;27.20;99.90;;;;;;5094265;28;20024;-63
2023/08/26 09:04:26;;;;;;;8.77;4.20;;;27.10;99.90;;;;;;5094240;28;20412;-63
2023/08/26 09:06:52;;;;;;;5.72;4.50;;;27.20;99.90;;;;;;5094214;28;20114;-63
2023/08/26 09:09:18;;;;;;;5.28;4.30;;;27.00;99.90;;;;;;5094140;28;20047;-63
2023/08/26 09:11:46;;;;;;;5.10;4.18;;;26.70;99.90;;;;;;5076103;28;20405;-64
2023/08/26 09:14:12;;;;;;;6.75;3.85;;;26.40;99.90;;;;;;5093777;28;20024;-63
2023/08/26 09:16:39;;;;;;;5.40;3.83;;;26.30;99.90;;;;;;5094097;28;20105;-64
2023/08/26 09:19:06;;;;;;;5.32;3.50;;;26.80;99.90;;;;;;5092703;28;20032;-65
2023/08/26 09:21:32;;;;;;;5.80;3.30;;;27.20;99.90;;;;;;5075908;28;20362;-66
2023/08/26 09:23:57;;;;;;;3.15;2.60;;;27.80;99.90;;;;;;5075943;28;20035;-63
2023/08/26 09:26:24;;;;;;;3.70;2.78;;;27.80;99.90;;;;;;5075916;28;20019;-63
2023/08/26 09:28:50;;;;;;;4.55;2.95;;;27.50;99.90;;;;;;5075745;28;20062;-63
2023/08/26 09:31:17;;;;;;;4.47;2.83;;;27.90;99.90;;;;;;5094071;28;20104;-64
2023/08/26 09:33:50;;;;;;;2.78;2.30;;;29.30;97.30;;;;;;5076377;28;20027;-64
2023/08/26 09:36:16;;;;;;;2.20;2.00;;;31.10;93.30;;;;;;5093950;28;20066;-65
2023/08/26 09:38:44;;;;;;;1.90;1.80;;;32.20;87.60;;;;;;5094385;28;20043;-66
2023/08/26 09:41:10;;;;;;;2.63;1.58;;;32.30;84.90;;;;;;5075696;28;20472;-66
2023/08/26 09:43:39;;;;;;;2.65;2.08;;;32.60;80.70;;;;;;5075244;28;20109;-66
2023/08/26 09:46:05;;;;;;;3.38;2.08;;;32.80;78.00;;;;;;5076249;28;20381;-64
2023/08/26 09:48:31;;;;;;;2.03;1.92;;;32.90;75.90;;;;;;5093606;28;20032;-65
2023/08/26 09:50:56;;;;;;;3.90;2.10;;;33.50;74.10;;;;;;5093531;28;20036;-66
2023/08/26 09:53:32;;;;;;;2.63;1.92;;;34.00;72.00;;;;;;5093829;28;20024;-66
2023/08/26 09:55:58;;;;;;;2.05;1.83;;;35.00;69.60;;;;;;5094963;28;20036;-66
2023/08/26 09:58:25;;;;;;;1.95;1.80;;;35.00;67.60;;;;;;5093958;28;20054;-67
2023/08/26 10:00:53;;;;;;;2.25;1.90;;;35.80;65.50;;;;;;5094011;28;20082;-66
2023/08/26 10:03:24;;;;;;;3.58;2.08;;;35.80;63.50;;;;;;5075837;28;20028;-66
2023/08/26 10:05:53;;;;;;;4.03;2.20;;;35.40;63.60;;;;;;5094261;28;20119;-66
2023/08/26 10:08:20;;;;;;;3.38;2.30;;;34.80;64.20;;;;;;5095175;28;20028;-67
2023/08/26 10:10:59;;;;;;;2.10;2.00;;;34.20;65.80;;;;;;5076736;28;20560;-66
2023/08/26 10:13:27;;;;;;;3.00;2.33;;;33.00;67.20;;;;;;5094055;28;20258;-66
2023/08/26 10:15:56;;;;;;;3.10;2.58;;;31.90;68.90;;;;;;5075697;28;20021;-66
2023/08/26 10:18:34;;;;;;;2.40;2.20;;;31.50;70.80;;;;;;5093299;28;20044;-67
2023/08/26 10:21:04;;;;;;;4.90;2.43;;;31.30;71.70;;;;;;5093368;28;20052;-65
2023/08/26 10:23:30;;;;;;;4.70;2.50;;;31.30;72.40;;;;;;5094120;28;20027;-65
2023/08/26 10:25:57;;;;;;;3.92;2.55;;;31.30;74.40;;;;;;5075373;28;20381;-66
2023/08/26 10:28:25;;;;;;;4.15;2.92;;;31.50;73.30;;;;;;5094256;28;20031;-67
2023/08/26 10:30:56;;;;;;;2.40;2.20;;;31.90;71.90;;;;;;5075120;28;20469;-67
2023/08/26 10:33:23;;;;;;;2.05;1.90;;;32.90;69.50;;;;;;5075522;28;20120;-67
2023/08/26 10:36:15;;;;;;;3.47;2.08;;;33.10;68.20;;;;;;5093570;28;20030;-66
2023/08/26 10:38:57;;;;;;;3.17;2.75;;;33.40;68.10;;;;;;5091900;28;20043;-67
2023/08/26 10:41:30;;;;;;;3.25;2.40;;;32.80;68.00;;;;;;5075501;28;20078;-66
2023/08/26 10:44:03;;;;;;;2.97;2.28;;;32.50;68.80;;;;;;5075393;28;20063;-66
2023/08/26 10:46:34;;;;;;;6.32;2.30;;;32.10;68.90;;;;;;5075124;28;20028;-66
2023/08/26 10:49:02;;;;;;;2.78;2.40;;;31.60;69.90;;;;;;5074792;28;20028;-66
2023/08/26 10:51:31;;;;;;;6.47;2.30;;;31.30;70.30;;;;;;5075267;28;20374;-66
2023/08/26 10:54:05;;;;;;;3.53;2.08;;;31.10;71.10;;;;;;5093578;28;20101;-64
2023/08/26 10:56:37;;;;;;;3.58;2.42;;;31.10;70.60;;;;;;5078406;28;20496;-66
2023/08/26 10:59:04;;;;;;;5.45;2.10;;;31.40;69.80;;;;;;5078397;28;20039;-66
2023/08/26 11:01:36;;;;;;;1.88;1.73;;;31.90;69.90;;;;;;5078383;28;20377;-67
2023/08/26 11:04:05;;;;;;;4.10;2.60;;;33.60;67.70;;;;;;5078723;28;20349;-67
2023/08/26 11:06:39;;;;;;;4.63;2.10;;;35.10;63.70;;;;;;5078250;28;20423;-66
2023/08/26 11:09:05;;;;;;;3.00;2.47;;;35.10;63.60;;;;;;5078252;28;20555;-66
2023/08/26 11:11:32;;;;;;;2.72;2.22;;;34.40;63.00;;;;;;5096491;28;20057;-65
2023/08/26 11:13:58;;;;;;;4.32;2.55;;;33.40;64.30;;;;;;5096721;28;20479;-66
2023/08/26 11:16:23;;;;;;;3.30;2.20;;;33.10;65.20;;;;;;5096270;28;20099;-66
2023/08/26 11:18:55;;;;;;;2.63;2.08;;;33.00;65.20;;;;;;5077992;28;20038;-66
2023/08/26 11:21:21;;;;;;;3.53;2.38;;;33.20;64.90;;;;;;5096463;28;20020;-66
2023/08/26 11:23:47;;;;;;;2.47;2.28;;;33.50;63.50;;;;;;5078168;28;20020;-66
2023/08/26 11:26:19;;;;;;;3.85;2.30;;;33.30;63.90;;;;;;5078439;28;20046;-65
2023/08/26 11:28:47;;;;;;;4.93;2.30;;;33.00;64.10;;;;;;5096365;28;20028;-65
2023/08/26 11:31:13;;;;;;;3.05;2.40;;;32.90;64.80;;;;;;5077631;28;20032;-66
2023/08/26 11:33:39;;;;;;;2.92;2.10;;;33.50;64.00;;;;;;5096145;28;20028;-66
2023/08/26 11:36:04;;;;;;;3.90;2.08;;;34.20;62.50;;;;;;5077862;28;20362;-66
2023/08/26 11:38:36;;;;;;;2.67;2.42;;;34.90;61.20;;;;;;5077755;28;20035;-66
2023/08/26 11:41:03;;;;;;;4.00;2.25;;;35.50;59.80;;;;;;5096290;28;20488;-66
2023/08/26 11:43:29;;;;;;;2.35;2.15;;;35.90;58.10;;;;;;5095911;28;20072;-67
2023/08/26 11:45:55;;;;;;;3.38;2.50;;;35.80;58.00;;;;;;5078451;28;20071;-67
2023/08/26 11:48:21;;;;;;;2.88;2.13;;;35.70;57.30;;;;;;5095871;28;20028;-66
2023/08/26 11:50:50;;;;;;;2.30;1.95;;;36.20;57.60;;;;;;5095978;28;20078;-67
2023/08/26 11:53:15;;;;;;;2.55;1.92;;;36.60;56.20;;;;;;5095910;28;20028;-66
2023/08/26 11:55:41;;;;;;;1.80;1.70;;;36.50;56.00;;;;;;5095741;28;20020;-67
2023/08/26 11:58:07;;;;;;;2.63;2.33;;;35.80;56.10;;;;;;5095199;28;20085;-67
2023/08/26 12:00:36;;;;;;;2.47;2.05;;;35.20;56.50;;;;;;5095393;28;20028;-66
2023/08/26 12:03:06;;;;;;;;;;;34.60;57.50;;;;;;5095843;28;20031;-65
2023/08/26 12:05:46;;;;;;;3.85;2.10;;;33.90;58.30;;;;;;5095251;28;19911;-66
2023/08/26 12:08:14;;;;;;;1.73;1.63;;;33.60;58.70;;;;;;5095529;28;20024;-64
2023/08/26 12:10:39;;;;;;;3.87;2.20;;;33.40;59.50;;;;;;5095598;28;20416;-67
2023/08/26 12:13:05;;;;;;;2.30;2.10;;;33.90;59.60;;;;;;5095391;28;20028;-66
2023/08/26 12:15:31;;;;;;;2.30;1.73;;;34.40;59.20;;;;;;5077074;28;20078;-66
2023/08/26 12:18:00;;;;;;;1.80;1.70;;;35.40;58.00;;;;;;5094882;28;20028;-67
2023/08/26 12:20:31;;;;;;;2.45;1.80;;;36.80;56.10;;;;;;5094968;28;20023;-67
2023/08/26 12:23:01;;;;;;;3.13;2.00;;;38.00;52.30;;;;;;5095281;28;20077;-67
2023/08/26 12:25:32;;;;;;;2.17;1.70;;;38.00;52.50;;;;;;5094655;28;20023;-67
2023/08/26 12:28:19;;;;;;;1.85;1.75;;;38.90;51.50;;;;;;5095043;28;20537;-67
2023/08/26 12:30:46;;;;;;;2.33;1.88;;;39.20;50.00;;;;;;5095244;28;20028;-69
2023/08/26 12:33:13;;;;;;;2.15;1.90;;;38.50;49.90;;;;;;5076858;28;20063;-80
2023/08/26 12:35:39;;;;;;;1.95;1.80;;;35.90;58.10;;;;;;5076356;28;20089;-78
2023/08/26 12:38:06;;;;;;;4.00;2.20;;;35.20;59.60;;;;;;5076699;28;20025;-75
2023/08/26 12:40:33;;;;;;;1.50;1.40;;;36.40;55.60;;;;;;5094815;28;20028;-75
2023/08/26 12:43:00;;;;;;;2.08;1.63;;;37.60;53.70;;;;;;5077273;28;20288;-82
2023/08/26 12:45:27;;;;;;;3.38;1.90;;;38.80;52.50;;;;;;5076884;28;20029;-81
2023/08/26 12:47:53;;;;;;;3.78;2.08;;;39.20;51.70;;;;;;5076849;28;20032;-82